sensor_id;sensor_type;location;lat;lon;timestamp;P1;durP1;ratioP1;P2;durP2;ratioP2
71806;SDS011;59655;42.590;23.364;2022-07-01T00:00:20;13.82;;;6.13;;
71806;SDS011;59655;42.590;23.364;2022-07-01T00:02:46;13.93;;;7.00;;
71806;SDS011;59655;42.590;23.364;2022-07-01T00:05:11;11.15;;;6.68;;
71806;SDS011;59655;42.590;23.364;2022-07-01T00:07:37;11.45;;;7.57;;
71806;SDS011;59655;42.590;23.364;2022-07-01T00:10:03;11.10;;;6.68;;
71806;SDS011;59655;42.590;23.364;2022-07-01T00:12:29;15.82;;;7.13;;
71806;SDS011;59655;42.590;23.364;2022-07-01T00:14:54;14.85;;;6.97;;
71806;SDS011;59655;42.590;23.364;2022-07-01T00:17:20;12.57;;;6.88;;
71806;SDS011;59655;42.590;23.364;2022-07-01T00:19:45;11.90;;;7.53;;
71806;SDS011;59655;42.590;23.364;2022-07-01T00:22:10;11.02;;;7.03;;
71806;SDS011;59655;42.590;23.364;2022-07-01T00:24:36;21.83;;;7.30;;
71806;SDS011;59655;42.590;23.364;2022-07-01T00:27:01;12.38;;;7.15;;
71806;SDS011;59655;42.590;23.364;2022-07-01T00:29:27;12.10;;;7.22;;
71806;SDS011;59655;42.590;23.364;2022-07-01T00:31:52;11.50;;;7.32;;
71806;SDS011;59655;42.590;23.364;2022-07-01T00:34:18;11.18;;;7.57;;
71806;SDS011;59655;42.590;23.364;2022-07-01T00:36:43;11.85;;;7.63;;
71806;SDS011;59655;42.590;23.364;2022-07-01T00:39:08;20.05;;;8.52;;
71806;SDS011;59655;42.590;23.364;2022-07-01T00:41:34;12.35;;;7.95;;
71806;SDS011;59655;42.590;23.364;2022-07-01T00:43:59;14.40;;;8.15;;
71806;SDS011;59655;42.590;23.364;2022-07-01T00:46:25;19.73;;;9.07;;
71806;SDS011;59655;42.590;23.364;2022-07-01T00:48:51;16.92;;;8.75;;
71806;SDS011;59655;42.590;23.364;2022-07-01T00:51:21;15.90;;;8.98;;
71806;SDS011;59655;42.590;23.364;2022-07-01T00:53:47;15.90;;;8.50;;
71806;SDS011;59655;42.590;23.364;2022-07-01T00:56:13;12.75;;;8.30;;
71806;SDS011;59655;42.590;23.364;2022-07-01T00:58:38;12.10;;;8.30;;
71806;SDS011;59655;42.590;23.364;2022-07-01T01:01:05;11.75;;;7.85;;
71806;SDS011;59655;42.590;23.364;2022-07-01T01:03:30;15.23;;;8.55;;
71806;SDS011;59655;42.590;23.364;2022-07-01T01:05:55;11.65;;;8.43;;
71806;SDS011;59655;42.590;23.364;2022-07-01T01:08:22;12.27;;;8.43;;
71806;SDS011;59655;42.590;23.364;2022-07-01T01:10:47;12.27;;;9.10;;
71806;SDS011;59655;42.590;23.364;2022-07-01T01:13:13;15.98;;;9.63;;
71806;SDS011;59655;42.590;23.364;2022-07-01T01:15:39;14.95;;;8.82;;
71806;SDS011;59655;42.590;23.364;2022-07-01T01:18:04;14.48;;;9.40;;
71806;SDS011;59655;42.590;23.364;2022-07-01T01:20:35;12.80;;;9.20;;
71806;SDS011;59655;42.590;23.364;2022-07-01T01:23:01;13.20;;;9.27;;
71806;SDS011;59655;42.590;23.364;2022-07-01T01:25:27;15.80;;;8.45;;
71806;SDS011;59655;42.590;23.364;2022-07-01T01:27:52;12.77;;;8.75;;
71806;SDS011;59655;42.590;23.364;2022-07-01T01:30:17;18.92;;;9.13;;
71806;SDS011;59655;42.590;23.364;2022-07-01T01:32:43;13.20;;;8.60;;
71806;SDS011;59655;42.590;23.364;2022-07-01T01:35:09;17.45;;;8.50;;
71806;SDS011;59655;42.590;23.364;2022-07-01T01:37:36;11.95;;;7.97;;
71806;SDS011;59655;42.590;23.364;2022-07-01T01:40:02;16.83;;;8.52;;
71806;SDS011;59655;42.590;23.364;2022-07-01T01:42:28;15.55;;;9.05;;
71806;SDS011;59655;42.590;23.364;2022-07-01T01:44:53;12.75;;;9.45;;
71806;SDS011;59655;42.590;23.364;2022-07-01T01:47:19;14.10;;;8.85;;
71806;SDS011;59655;42.590;23.364;2022-07-01T01:49:45;14.43;;;9.20;;
71806;SDS011;59655;42.590;23.364;2022-07-01T01:52:10;12.23;;;8.32;;
71806;SDS011;59655;42.590;23.364;2022-07-01T01:54:36;15.13;;;9.02;;
71806;SDS011;59655;42.590;23.364;2022-07-01T01:57:02;12.30;;;8.88;;
71806;SDS011;59655;42.590;23.364;2022-07-01T01:59:28;17.90;;;14.63;;
71806;SDS011;59655;42.590;23.364;2022-07-01T02:01:54;13.55;;;9.43;;
71806;SDS011;59655;42.590;23.364;2022-07-01T02:04:19;12.68;;;8.68;;
71806;SDS011;59655;42.590;23.364;2022-07-01T02:06:45;14.40;;;8.27;;
71806;SDS011;59655;42.590;23.364;2022-07-01T02:09:11;17.52;;;8.95;;
71806;SDS011;59655;42.590;23.364;2022-07-01T02:11:36;13.27;;;8.98;;
71806;SDS011;59655;42.590;23.364;2022-07-01T02:14:02;13.85;;;8.70;;
71806;SDS011;59655;42.590;23.364;2022-07-01T02:16:27;15.88;;;8.75;;
71806;SDS011;59655;42.590;23.364;2022-07-01T02:18:52;18.40;;;9.52;;
71806;SDS011;59655;42.590;23.364;2022-07-01T02:21:18;17.83;;;8.18;;
71806;SDS011;59655;42.590;23.364;2022-07-01T02:23:43;14.77;;;9.00;;
71806;SDS011;59655;42.590;23.364;2022-07-01T02:26:09;12.65;;;8.80;;
71806;SDS011;59655;42.590;23.364;2022-07-01T02:28:34;17.65;;;9.65;;
71806;SDS011;59655;42.590;23.364;2022-07-01T02:31:00;17.95;;;9.88;;
71806;SDS011;59655;42.590;23.364;2022-07-01T02:33:27;12.32;;;9.27;;
71806;SDS011;59655;42.590;23.364;2022-07-01T02:35:53;14.63;;;9.20;;
71806;SDS011;59655;42.590;23.364;2022-07-01T02:38:18;11.32;;;9.15;;
71806;SDS011;59655;42.590;23.364;2022-07-01T02:40:44;14.98;;;8.95;;
71806;SDS011;59655;42.590;23.364;2022-07-01T02:43:09;11.23;;;8.57;;
71806;SDS011;59655;42.590;23.364;2022-07-01T02:45:34;12.00;;;8.60;;
71806;SDS011;59655;42.590;23.364;2022-07-01T02:48:00;11.70;;;8.52;;
71806;SDS011;59655;42.590;23.364;2022-07-01T02:50:26;20.75;;;9.32;;
71806;SDS011;59655;42.590;23.364;2022-07-01T02:52:52;14.13;;;9.07;;
71806;SDS011;59655;42.590;23.364;2022-07-01T02:55:18;13.40;;;8.90;;
71806;SDS011;59655;42.590;23.364;2022-07-01T02:57:43;17.98;;;8.02;;
71806;SDS011;59655;42.590;23.364;2022-07-01T03:00:10;17.20;;;9.18;;
71806;SDS011;59655;42.590;23.364;2022-07-01T03:02:37;15.07;;;8.30;;
71806;SDS011;59655;42.590;23.364;2022-07-01T03:05:03;14.30;;;8.32;;
71806;SDS011;59655;42.590;23.364;2022-07-01T03:07:29;19.65;;;9.20;;
71806;SDS011;59655;42.590;23.364;2022-07-01T03:09:56;15.20;;;9.35;;
71806;SDS011;59655;42.590;23.364;2022-07-01T03:12:22;16.45;;;9.23;;
71806;SDS011;59655;42.590;23.364;2022-07-01T03:14:52;18.75;;;10.02;;
71806;SDS011;59655;42.590;23.364;2022-07-01T03:17:23;16.83;;;10.25;;
71806;SDS011;59655;42.590;23.364;2022-07-01T03:19:49;19.85;;;13.23;;
71806;SDS011;59655;42.590;23.364;2022-07-01T03:22:16;13.73;;;9.68;;
71806;SDS011;59655;42.590;23.364;2022-07-01T03:24:42;18.10;;;10.50;;
71806;SDS011;59655;42.590;23.364;2022-07-01T03:27:07;15.90;;;10.57;;
71806;SDS011;59655;42.590;23.364;2022-07-01T03:29:33;16.00;;;10.45;;
71806;SDS011;59655;42.590;23.364;2022-07-01T03:31:58;15.57;;;9.98;;
71806;SDS011;59655;42.590;23.364;2022-07-01T03:34:24;15.50;;;10.07;;
71806;SDS011;59655;42.590;23.364;2022-07-01T03:36:49;14.95;;;10.13;;
71806;SDS011;59655;42.590;23.364;2022-07-01T03:39:15;17.13;;;9.77;;
71806;SDS011;59655;42.590;23.364;2022-07-01T03:41:40;24.30;;;10.82;;
71806;SDS011;59655;42.590;23.364;2022-07-01T03:44:05;19.85;;;10.43;;
71806;SDS011;59655;42.590;23.364;2022-07-01T03:46:31;17.83;;;9.88;;
71806;SDS011;59655;42.590;23.364;2022-07-01T03:49:00;14.13;;;9.93;;
71806;SDS011;59655;42.590;23.364;2022-07-01T03:51:27;18.50;;;10.40;;
71806;SDS011;59655;42.590;23.364;2022-07-01T03:53:53;21.15;;;9.95;;
71806;SDS011;59655;42.590;23.364;2022-07-01T03:56:36;18.10;;;10.57;;
71806;SDS011;59655;42.590;23.364;2022-07-01T03:59:02;24.88;;;9.68;;
71806;SDS011;59655;42.590;23.364;2022-07-01T04:01:27;18.98;;;10.40;;
71806;SDS011;59655;42.590;23.364;2022-07-01T04:03:53;24.58;;;11.45;;
71806;SDS011;59655;42.590;23.364;2022-07-01T04:06:18;17.90;;;9.80;;
71806;SDS011;59655;42.590;23.364;2022-07-01T04:08:45;28.25;;;11.05;;
71806;SDS011;59655;42.590;23.364;2022-07-01T04:11:12;25.60;;;10.15;;
71806;SDS011;59655;42.590;23.364;2022-07-01T04:13:37;17.45;;;10.38;;
71806;SDS011;59655;42.590;23.364;2022-07-01T04:16:03;21.25;;;10.45;;
71806;SDS011;59655;42.590;23.364;2022-07-01T04:18:29;17.25;;;10.18;;
71806;SDS011;59655;42.590;23.364;2022-07-01T04:20:55;17.70;;;10.40;;
71806;SDS011;59655;42.590;23.364;2022-07-01T04:23:39;16.20;;;10.85;;
71806;SDS011;59655;42.590;23.364;2022-07-01T04:26:04;15.90;;;10.30;;
71806;SDS011;59655;42.590;23.364;2022-07-01T04:28:30;17.63;;;11.18;;
71806;SDS011;59655;42.590;23.364;2022-07-01T04:30:55;23.15;;;11.48;;
71806;SDS011;59655;42.590;23.364;2022-07-01T04:33:20;26.00;;;12.10;;
71806;SDS011;59655;42.590;23.364;2022-07-01T04:35:46;23.70;;;11.63;;
71806;SDS011;59655;42.590;23.364;2022-07-01T04:38:11;28.20;;;13.15;;
71806;SDS011;59655;42.590;23.364;2022-07-01T04:40:37;31.17;;;18.77;;
71806;SDS011;59655;42.590;23.364;2022-07-01T04:43:02;35.42;;;25.33;;
71806;SDS011;59655;42.590;23.364;2022-07-01T04:45:27;32.25;;;21.63;;
71806;SDS011;59655;42.590;23.364;2022-07-01T04:47:53;37.95;;;16.80;;
71806;SDS011;59655;42.590;23.364;2022-07-01T04:50:18;29.65;;;14.73;;
71806;SDS011;59655;42.590;23.364;2022-07-01T04:52:44;21.48;;;12.00;;
71806;SDS011;59655;42.590;23.364;2022-07-01T04:55:09;18.67;;;10.95;;
71806;SDS011;59655;42.590;23.364;2022-07-01T04:57:34;23.30;;;11.60;;
71806;SDS011;59655;42.590;23.364;2022-07-01T05:00:00;24.23;;;11.57;;
71806;SDS011;59655;42.590;23.364;2022-07-01T05:02:25;30.00;;;11.15;;
71806;SDS011;59655;42.590;23.364;2022-07-01T05:04:50;17.95;;;10.20;;
71806;SDS011;59655;42.590;23.364;2022-07-01T05:07:16;14.88;;;10.07;;
71806;SDS011;59655;42.590;23.364;2022-07-01T05:09:56;17.70;;;10.40;;
71806;SDS011;59655;42.590;23.364;2022-07-01T05:12:24;17.25;;;9.98;;
71806;SDS011;59655;42.590;23.364;2022-07-01T05:14:50;14.32;;;9.95;;
71806;SDS011;59655;42.590;23.364;2022-07-01T05:17:15;14.63;;;10.02;;
71806;SDS011;59655;42.590;23.364;2022-07-01T05:19:41;15.05;;;10.07;;
71806;SDS011;59655;42.590;23.364;2022-07-01T05:22:25;15.10;;;9.73;;
71806;SDS011;59655;42.590;23.364;2022-07-01T05:24:50;17.90;;;9.63;;
71806;SDS011;59655;42.590;23.364;2022-07-01T05:27:16;18.30;;;9.95;;
71806;SDS011;59655;42.590;23.364;2022-07-01T05:29:41;14.65;;;9.35;;
71806;SDS011;59655;42.590;23.364;2022-07-01T05:32:06;33.53;;;14.55;;
71806;SDS011;59655;42.590;23.364;2022-07-01T05:34:32;21.85;;;9.18;;
71806;SDS011;59655;42.590;23.364;2022-07-01T05:36:58;26.83;;;10.10;;
71806;SDS011;59655;42.590;23.364;2022-07-01T05:39:23;17.38;;;8.25;;
71806;SDS011;59655;42.590;23.364;2022-07-01T05:41:50;17.05;;;8.50;;
71806;SDS011;59655;42.590;23.364;2022-07-01T05:44:16;14.65;;;8.90;;
71806;SDS011;59655;42.590;23.364;2022-07-01T05:46:41;14.98;;;8.75;;
71806;SDS011;59655;42.590;23.364;2022-07-01T05:49:06;17.88;;;8.65;;
71806;SDS011;59655;42.590;23.364;2022-07-01T05:51:32;17.80;;;9.43;;
71806;SDS011;59655;42.590;23.364;2022-07-01T05:53:57;20.75;;;9.80;;
71806;SDS011;59655;42.590;23.364;2022-07-01T05:56:23;12.50;;;9.10;;
71806;SDS011;59655;42.590;23.364;2022-07-01T05:58:48;13.93;;;9.93;;
71806;SDS011;59655;42.590;23.364;2022-07-01T06:01:14;14.77;;;9.50;;
71806;SDS011;59655;42.590;23.364;2022-07-01T06:03:39;15.05;;;9.70;;
71806;SDS011;59655;42.590;23.364;2022-07-01T06:06:05;15.82;;;10.60;;
71806;SDS011;59655;42.590;23.364;2022-07-01T06:08:30;18.40;;;10.63;;
71806;SDS011;59655;42.590;23.364;2022-07-01T06:10:56;19.02;;;10.75;;
71806;SDS011;59655;42.590;23.364;2022-07-01T06:13:21;15.48;;;10.40;;
71806;SDS011;59655;42.590;23.364;2022-07-01T06:15:46;18.73;;;10.07;;
71806;SDS011;59655;42.590;23.364;2022-07-01T06:18:12;20.25;;;11.05;;
71806;SDS011;59655;42.590;23.364;2022-07-01T06:20:37;19.75;;;11.00;;
71806;SDS011;59655;42.590;23.364;2022-07-01T06:23:04;23.23;;;11.75;;
71806;SDS011;59655;42.590;23.364;2022-07-01T06:25:29;19.77;;;11.00;;
71806;SDS011;59655;42.590;23.364;2022-07-01T06:27:55;20.02;;;10.52;;
71806;SDS011;59655;42.590;23.364;2022-07-01T06:30:20;23.55;;;11.98;;
71806;SDS011;59655;42.590;23.364;2022-07-01T06:32:45;27.13;;;11.85;;
71806;SDS011;59655;42.590;23.364;2022-07-01T06:35:11;25.05;;;10.48;;
71806;SDS011;59655;42.590;23.364;2022-07-01T06:37:36;21.73;;;12.45;;
71806;SDS011;59655;42.590;23.364;2022-07-01T06:40:05;21.60;;;11.23;;
71806;SDS011;59655;42.590;23.364;2022-07-01T06:42:32;27.38;;;11.32;;
71806;SDS011;59655;42.590;23.364;2022-07-01T06:44:58;22.63;;;13.18;;
71806;SDS011;59655;42.590;23.364;2022-07-01T06:47:24;21.05;;;11.18;;
71806;SDS011;59655;42.590;23.364;2022-07-01T06:49:49;24.98;;;12.27;;
71806;SDS011;59655;42.590;23.364;2022-07-01T06:52:14;21.27;;;11.45;;
71806;SDS011;59655;42.590;23.364;2022-07-01T06:54:40;21.83;;;12.60;;
71806;SDS011;59655;42.590;23.364;2022-07-01T06:57:06;18.98;;;12.15;;
71806;SDS011;59655;42.590;23.364;2022-07-01T06:59:32;22.48;;;11.38;;
71806;SDS011;59655;42.590;23.364;2022-07-01T07:01:59;17.73;;;10.70;;
71806;SDS011;59655;42.590;23.364;2022-07-01T07:04:36;30.42;;;13.15;;
71806;SDS011;59655;42.590;23.364;2022-07-01T07:07:03;19.95;;;12.07;;
71806;SDS011;59655;42.590;23.364;2022-07-01T07:09:28;22.65;;;11.43;;
71806;SDS011;59655;42.590;23.364;2022-07-01T07:11:54;19.17;;;11.82;;
71806;SDS011;59655;42.590;23.364;2022-07-01T07:14:19;22.08;;;12.20;;
71806;SDS011;59655;42.590;23.364;2022-07-01T07:16:45;25.42;;;11.07;;
71806;SDS011;59655;42.590;23.364;2022-07-01T07:19:10;21.80;;;11.70;;
71806;SDS011;59655;42.590;23.364;2022-07-01T07:21:36;24.77;;;11.57;;
71806;SDS011;59655;42.590;23.364;2022-07-01T07:24:01;25.13;;;11.88;;
71806;SDS011;59655;42.590;23.364;2022-07-01T07:26:27;24.95;;;13.10;;
71806;SDS011;59655;42.590;23.364;2022-07-01T07:28:52;23.02;;;12.35;;
71806;SDS011;59655;42.590;23.364;2022-07-01T07:31:18;23.80;;;12.43;;
71806;SDS011;59655;42.590;23.364;2022-07-01T07:33:52;18.35;;;12.20;;
71806;SDS011;59655;42.590;23.364;2022-07-01T07:36:17;26.10;;;12.50;;
71806;SDS011;59655;42.590;23.364;2022-07-01T07:38:45;22.13;;;10.80;;
71806;SDS011;59655;42.590;23.364;2022-07-01T07:41:21;24.27;;;12.27;;
71806;SDS011;59655;42.590;23.364;2022-07-01T07:43:48;23.05;;;11.90;;
71806;SDS011;59655;42.590;23.364;2022-07-01T07:46:14;24.75;;;12.98;;
71806;SDS011;59655;42.590;23.364;2022-07-01T07:48:40;26.35;;;13.05;;
71806;SDS011;59655;42.590;23.364;2022-07-01T07:51:08;27.15;;;13.02;;
71806;SDS011;59655;42.590;23.364;2022-07-01T07:53:33;22.00;;;12.07;;
71806;SDS011;59655;42.590;23.364;2022-07-01T07:55:59;21.98;;;12.63;;
71806;SDS011;59655;42.590;23.364;2022-07-01T07:58:25;21.90;;;12.43;;
71806;SDS011;59655;42.590;23.364;2022-07-01T08:00:50;24.67;;;12.18;;
71806;SDS011;59655;42.590;23.364;2022-07-01T08:03:16;22.15;;;12.60;;
71806;SDS011;59655;42.590;23.364;2022-07-01T08:05:41;18.85;;;12.18;;
71806;SDS011;59655;42.590;23.364;2022-07-01T08:08:06;21.88;;;12.38;;
71806;SDS011;59655;42.590;23.364;2022-07-01T08:10:32;22.97;;;11.87;;
71806;SDS011;59655;42.590;23.364;2022-07-01T08:12:57;25.95;;;13.73;;
71806;SDS011;59655;42.590;23.364;2022-07-01T08:15:25;23.13;;;12.88;;
71806;SDS011;59655;42.590;23.364;2022-07-01T08:17:50;25.63;;;13.93;;
71806;SDS011;59655;42.590;23.364;2022-07-01T08:20:15;23.05;;;13.10;;
71806;SDS011;59655;42.590;23.364;2022-07-01T08:22:43;30.77;;;14.05;;
71806;SDS011;59655;42.590;23.364;2022-07-01T08:25:08;23.90;;;12.43;;
71806;SDS011;59655;42.590;23.364;2022-07-01T08:27:33;25.25;;;14.13;;
71806;SDS011;59655;42.590;23.364;2022-07-01T08:29:59;27.42;;;13.10;;
71806;SDS011;59655;42.590;23.364;2022-07-01T08:32:24;25.65;;;13.23;;
71806;SDS011;59655;42.590;23.364;2022-07-01T08:34:51;28.48;;;14.40;;
71806;SDS011;59655;42.590;23.364;2022-07-01T08:37:17;29.40;;;12.30;;
71806;SDS011;59655;42.590;23.364;2022-07-01T08:39:42;24.92;;;13.45;;
71806;SDS011;59655;42.590;23.364;2022-07-01T08:42:08;24.10;;;13.18;;
71806;SDS011;59655;42.590;23.364;2022-07-01T08:44:33;30.80;;;13.10;;
71806;SDS011;59655;42.590;23.364;2022-07-01T08:46:59;25.13;;;13.93;;
71806;SDS011;59655;42.590;23.364;2022-07-01T08:49:24;23.33;;;13.60;;
71806;SDS011;59655;42.590;23.364;2022-07-01T08:51:50;27.90;;;15.02;;
71806;SDS011;59655;42.590;23.364;2022-07-01T08:54:15;24.90;;;13.93;;
71806;SDS011;59655;42.590;23.364;2022-07-01T08:56:41;25.02;;;13.55;;
71806;SDS011;59655;42.590;23.364;2022-07-01T08:59:06;22.23;;;13.40;;
71806;SDS011;59655;42.590;23.364;2022-07-01T09:01:37;26.63;;;13.48;;
71806;SDS011;59655;42.590;23.364;2022-07-01T09:04:16;23.98;;;13.63;;
71806;SDS011;59655;42.590;23.364;2022-07-01T09:06:44;24.23;;;13.40;;
71806;SDS011;59655;42.590;23.364;2022-07-01T09:09:14;21.13;;;11.98;;
71806;SDS011;59655;42.590;23.364;2022-07-01T09:11:45;24.38;;;13.10;;
71806;SDS011;59655;42.590;23.364;2022-07-01T09:14:18;24.40;;;11.55;;
71806;SDS011;59655;42.590;23.364;2022-07-01T09:17:04;23.77;;;12.60;;
71806;SDS011;59655;42.590;23.364;2022-07-01T09:19:37;23.58;;;12.32;;
71806;SDS011;59655;42.590;23.364;2022-07-01T09:22:05;23.60;;;12.93;;
71806;SDS011;59655;42.590;23.364;2022-07-01T09:24:40;19.75;;;11.75;;
71806;SDS011;59655;42.590;23.364;2022-07-01T09:27:08;21.48;;;12.25;;
71806;SDS011;59655;42.590;23.364;2022-07-01T09:29:38;19.23;;;12.70;;
71806;SDS011;59655;42.590;23.364;2022-07-01T09:32:08;18.83;;;12.55;;
71806;SDS011;59655;42.590;23.364;2022-07-01T09:34:42;18.80;;;11.82;;
71806;SDS011;59655;42.590;23.364;2022-07-01T09:37:27;28.73;;;12.57;;
71806;SDS011;59655;42.590;23.364;2022-07-01T09:39:56;18.25;;;11.52;;
71806;SDS011;59655;42.590;23.364;2022-07-01T09:42:23;16.73;;;11.02;;
71806;SDS011;59655;42.590;23.364;2022-07-01T09:44:57;17.08;;;11.07;;
71806;SDS011;59655;42.590;23.364;2022-07-01T09:47:25;16.23;;;10.32;;
71806;SDS011;59655;42.590;23.364;2022-07-01T09:49:51;17.23;;;10.48;;
71806;SDS011;59655;42.590;23.364;2022-07-01T09:52:18;16.33;;;10.40;;
71806;SDS011;59655;42.590;23.364;2022-07-01T09:54:44;23.23;;;11.05;;
71806;SDS011;59655;42.590;23.364;2022-07-01T09:57:13;19.08;;;9.45;;
71806;SDS011;59655;42.590;23.364;2022-07-01T09:59:39;14.65;;;9.48;;
71806;SDS011;59655;42.590;23.364;2022-07-01T10:02:05;13.93;;;10.65;;
71806;SDS011;59655;42.590;23.364;2022-07-01T10:04:32;15.98;;;10.35;;
71806;SDS011;59655;42.590;23.364;2022-07-01T10:15:04;17.73;;;9.30;;
71806;SDS011;59655;42.590;23.364;2022-07-01T10:17:36;17.05;;;8.82;;
71806;SDS011;59655;42.590;23.364;2022-07-01T10:20:14;19.17;;;8.80;;
71806;SDS011;59655;42.590;23.364;2022-07-01T10:22:41;21.75;;;10.98;;
71806;SDS011;59655;42.590;23.364;2022-07-01T10:31:16;16.02;;;8.68;;
71806;SDS011;59655;42.590;23.364;2022-07-01T10:33:49;14.75;;;9.85;;
71806;SDS011;59655;42.590;23.364;2022-07-01T10:36:19;17.98;;;10.20;;
71806;SDS011;59655;42.590;23.364;2022-07-01T10:41:32;18.95;;;10.30;;
71806;SDS011;59655;42.590;23.364;2022-07-01T10:44:01;21.10;;;10.52;;
71806;SDS011;59655;42.590;23.364;2022-07-01T10:46:38;14.30;;;9.68;;
71806;SDS011;59655;42.590;23.364;2022-07-01T10:52:06;18.05;;;10.18;;
71806;SDS011;59655;42.590;23.364;2022-07-01T11:04:43;13.35;;;9.88;;
71806;SDS011;59655;42.590;23.364;2022-07-01T11:07:09;23.65;;;10.35;;
71806;SDS011;59655;42.590;23.364;2022-07-01T11:09:34;18.23;;;10.10;;
71806;SDS011;59655;42.590;23.364;2022-07-01T11:12:00;17.27;;;10.15;;
71806;SDS011;59655;42.590;23.364;2022-07-01T11:14:27;16.90;;;9.85;;
71806;SDS011;59655;42.590;23.364;2022-07-01T11:16:53;16.17;;;10.07;;
71806;SDS011;59655;42.590;23.364;2022-07-01T11:19:20;20.23;;;10.13;;
71806;SDS011;59655;42.590;23.364;2022-07-01T11:21:51;15.05;;;9.95;;
71806;SDS011;59655;42.590;23.364;2022-07-01T11:24:17;18.17;;;9.88;;
71806;SDS011;59655;42.590;23.364;2022-07-01T11:26:43;15.25;;;9.73;;
71806;SDS011;59655;42.590;23.364;2022-07-01T11:29:15;13.57;;;9.20;;
71806;SDS011;59655;42.590;23.364;2022-07-01T11:31:50;13.13;;;9.20;;
71806;SDS011;59655;42.590;23.364;2022-07-01T11:34:15;12.38;;;8.90;;
71806;SDS011;59655;42.590;23.364;2022-07-01T11:36:42;20.70;;;9.82;;
71806;SDS011;59655;42.590;23.364;2022-07-01T11:39:27;13.63;;;9.32;;
71806;SDS011;59655;42.590;23.364;2022-07-01T11:41:59;14.85;;;8.95;;
71806;SDS011;59655;42.590;23.364;2022-07-01T11:47:04;11.77;;;8.57;;
71806;SDS011;59655;42.590;23.364;2022-07-01T11:49:30;14.48;;;8.50;;
71806;SDS011;59655;42.590;23.364;2022-07-01T11:52:04;15.57;;;9.13;;
71806;SDS011;59655;42.590;23.364;2022-07-01T11:54:33;15.88;;;8.85;;
71806;SDS011;59655;42.590;23.364;2022-07-01T11:57:07;10.18;;;7.57;;
71806;SDS011;59655;42.590;23.364;2022-07-01T11:59:44;11.30;;;7.68;;
71806;SDS011;59655;42.590;23.364;2022-07-01T12:02:11;11.38;;;8.40;;
71806;SDS011;59655;42.590;23.364;2022-07-01T12:04:39;13.30;;;8.43;;
71806;SDS011;59655;42.590;23.364;2022-07-01T12:07:05;13.18;;;9.43;;
71806;SDS011;59655;42.590;23.364;2022-07-01T12:09:31;14.77;;;9.68;;
71806;SDS011;59655;42.590;23.364;2022-07-01T12:11:57;14.15;;;8.80;;
71806;SDS011;59655;42.590;23.364;2022-07-01T12:14:27;14.15;;;9.20;;
71806;SDS011;59655;42.590;23.364;2022-07-01T12:16:57;16.08;;;9.50;;
71806;SDS011;59655;42.590;23.364;2022-07-01T12:22:07;10.43;;;8.68;;
71806;SDS011;59655;42.590;23.364;2022-07-01T12:24:34;12.23;;;8.60;;
71806;SDS011;59655;42.590;23.364;2022-07-01T12:29:27;12.73;;;7.63;;
71806;SDS011;59655;42.590;23.364;2022-07-01T12:34:36;12.98;;;9.13;;
71806;SDS011;59655;42.590;23.364;2022-07-01T12:37:15;12.25;;;7.55;;
71806;SDS011;59655;42.590;23.364;2022-07-01T12:39:46;17.50;;;8.43;;
71806;SDS011;59655;42.590;23.364;2022-07-01T12:42:23;10.80;;;7.88;;
71806;SDS011;59655;42.590;23.364;2022-07-01T12:44:48;11.00;;;7.97;;
71806;SDS011;59655;42.590;23.364;2022-07-01T12:47:24;11.55;;;8.45;;
71806;SDS011;59655;42.590;23.364;2022-07-01T12:50:10;11.20;;;8.20;;
71806;SDS011;59655;42.590;23.364;2022-07-01T12:52:36;9.88;;;8.18;;
71806;SDS011;59655;42.590;23.364;2022-07-01T12:55:18;13.60;;;8.68;;
71806;SDS011;59655;42.590;23.364;2022-07-01T12:57:48;12.32;;;8.55;;
71806;SDS011;59655;42.590;23.364;2022-07-01T13:00:19;11.45;;;8.55;;
71806;SDS011;59655;42.590;23.364;2022-07-01T13:02:46;16.27;;;9.32;;
71806;SDS011;59655;42.590;23.364;2022-07-01T13:05:15;12.43;;;9.45;;
71806;SDS011;59655;42.590;23.364;2022-07-01T13:07:40;13.60;;;9.38;;
71806;SDS011;59655;42.590;23.364;2022-07-01T13:10:06;14.32;;;9.25;;
71806;SDS011;59655;42.590;23.364;2022-07-01T13:12:32;11.80;;;9.45;;
71806;SDS011;59655;42.590;23.364;2022-07-01T13:14:57;13.35;;;8.25;;
71806;SDS011;59655;42.590;23.364;2022-07-01T13:17:26;11.35;;;9.02;;
71806;SDS011;59655;42.590;23.364;2022-07-01T13:19:52;11.63;;;9.48;;
71806;SDS011;59655;42.590;23.364;2022-07-01T13:22:17;11.80;;;9.45;;
71806;SDS011;59655;42.590;23.364;2022-07-01T13:24:43;11.00;;;9.00;;
71806;SDS011;59655;42.590;23.364;2022-07-01T13:27:08;13.45;;;9.88;;
71806;SDS011;59655;42.590;23.364;2022-07-01T13:29:34;12.45;;;9.50;;
71806;SDS011;59655;42.590;23.364;2022-07-01T13:31:59;13.27;;;9.07;;
71806;SDS011;59655;42.590;23.364;2022-07-01T13:34:25;11.70;;;8.88;;
71806;SDS011;59655;42.590;23.364;2022-07-01T13:36:51;12.77;;;8.57;;
71806;SDS011;59655;42.590;23.364;2022-07-01T13:39:16;11.75;;;8.93;;
71806;SDS011;59655;42.590;23.364;2022-07-01T13:41:42;14.70;;;10.23;;
71806;SDS011;59655;42.590;23.364;2022-07-01T13:44:07;16.55;;;9.90;;
71806;SDS011;59655;42.590;23.364;2022-07-01T13:46:33;13.65;;;10.55;;
71806;SDS011;59655;42.590;23.364;2022-07-01T13:48:59;15.63;;;11.35;;
71806;SDS011;59655;42.590;23.364;2022-07-01T13:51:25;13.00;;;10.80;;
71806;SDS011;59655;42.590;23.364;2022-07-01T13:53:50;16.95;;;11.55;;
71806;SDS011;59655;42.590;23.364;2022-07-01T13:56:16;16.95;;;9.57;;
71806;SDS011;59655;42.590;23.364;2022-07-01T13:58:41;16.20;;;10.77;;
71806;SDS011;59655;42.590;23.364;2022-07-01T14:01:07;12.18;;;9.70;;
71806;SDS011;59655;42.590;23.364;2022-07-01T14:03:33;15.13;;;10.50;;
71806;SDS011;59655;42.590;23.364;2022-07-01T14:05:58;17.50;;;9.85;;
71806;SDS011;59655;42.590;23.364;2022-07-01T14:08:23;17.70;;;11.52;;
71806;SDS011;59655;42.590;23.364;2022-07-01T14:10:51;15.77;;;11.30;;
71806;SDS011;59655;42.590;23.364;2022-07-01T14:13:17;16.38;;;9.18;;
71806;SDS011;59655;42.590;23.364;2022-07-01T14:15:45;12.15;;;10.00;;
71806;SDS011;59655;42.590;23.364;2022-07-01T14:18:11;15.52;;;9.80;;
71806;SDS011;59655;42.590;23.364;2022-07-01T14:20:36;13.93;;;9.20;;
71806;SDS011;59655;42.590;23.364;2022-07-01T14:23:02;16.30;;;8.65;;
71806;SDS011;59655;42.590;23.364;2022-07-01T14:25:27;17.08;;;10.10;;
71806;SDS011;59655;42.590;23.364;2022-07-01T14:27:53;14.70;;;9.60;;
71806;SDS011;59655;42.590;23.364;2022-07-01T14:30:18;12.25;;;8.30;;
71806;SDS011;59655;42.590;23.364;2022-07-01T14:32:43;9.50;;;7.95;;
71806;SDS011;59655;42.590;23.364;2022-07-01T14:35:09;9.50;;;7.70;;
71806;SDS011;59655;42.590;23.364;2022-07-01T14:37:35;11.98;;;6.93;;
71806;SDS011;59655;42.590;23.364;2022-07-01T14:40:02;14.38;;;7.60;;
71806;SDS011;59655;42.590;23.364;2022-07-01T14:42:28;28.55;;;11.90;;
71806;SDS011;59655;42.590;23.364;2022-07-01T14:44:55;22.95;;;11.63;;
71806;SDS011;59655;42.590;23.364;2022-07-01T14:47:21;21.23;;;11.55;;
71806;SDS011;59655;42.590;23.364;2022-07-01T14:49:47;22.77;;;11.68;;
71806;SDS011;59655;42.590;23.364;2022-07-01T14:52:16;24.90;;;12.07;;
71806;SDS011;59655;42.590;23.364;2022-07-01T14:54:42;22.00;;;11.07;;